sensor_id;sensor_type;location;lat;lon;timestamp;P1;durP1;ratioP1;P2;durP2;ratioP2
70410;SDS011;57832;46.038;11.398;2023-02-07T00:00:01;0.10;;;0.10;;
70410;SDS011;57832;46.038;11.398;2023-02-07T00:02:29;0.10;;;0.10;;
70410;SDS011;57832;46.038;11.398;2023-02-07T00:04:54;0.10;;;0.10;;
70410;SDS011;57832;46.038;11.398;2023-02-07T00:07:20;0.10;;;0.10;;
70410;SDS011;57832;46.038;11.398;2023-02-07T00:09:45;0.10;;;0.10;;
70410;SDS011;57832;46.038;11.398;2023-02-07T00:12:11;0.10;;;0.10;;
70410;SDS011;57832;46.038;11.398;2023-02-07T00:14:37;0.10;;;0.10;;
70410;SDS011;57832;46.038;11.398;2023-02-07T00:17:02;0.10;;;0.10;;
70410;SDS011;57832;46.038;11.398;2023-02-07T00:19:28;0.10;;;0.10;;
70410;SDS011;57832;46.038;11.398;2023-02-07T00:21:53;0.10;;;0.10;;
70410;SDS011;57832;46.038;11.398;2023-02-07T00:24:19;0.10;;;0.10;;
70410;SDS011;57832;46.038;11.398;2023-02-07T00:26:44;0.10;;;0.10;;
70410;SDS011;57832;46.038;11.398;2023-02-07T00:29:11;0.10;;;0.10;;
70410;SDS011;57832;46.038;11.398;2023-02-07T00:31:37;0.20;;;0.20;;
70410;SDS011;57832;46.038;11.398;2023-02-07T00:34:05;0.20;;;0.20;;
70410;SDS011;57832;46.038;11.398;2023-02-07T00:36:33;0.10;;;0.10;;
70410;SDS011;57832;46.038;11.398;2023-02-07T00:39:04;0.10;;;0.10;;
70410;SDS011;57832;46.038;11.398;2023-02-07T00:41:31;0.10;;;0.10;;
70410;SDS011;57832;46.038;11.398;2023-02-07T00:43:57;0.10;;;0.10;;
70410;SDS011;57832;46.038;11.398;2023-02-07T00:46:23;0.10;;;0.10;;
70410;SDS011;57832;46.038;11.398;2023-02-07T00:48:49;0.10;;;0.10;;
70410;SDS011;57832;46.038;11.398;2023-02-07T00:51:16;0.20;;;0.20;;
70410;SDS011;57832;46.038;11.398;2023-02-07T00:53:42;0.10;;;0.10;;
70410;SDS011;57832;46.038;11.398;2023-02-07T00:56:09;0.10;;;0.10;;
70410;SDS011;57832;46.038;11.398;2023-02-07T00:58:35;0.10;;;0.10;;
70410;SDS011;57832;46.038;11.398;2023-02-07T01:01:02;0.10;;;0.10;;
70410;SDS011;57832;46.038;11.398;2023-02-07T01:03:28;0.10;;;0.10;;
70410;SDS011;57832;46.038;11.398;2023-02-07T01:05:53;0.10;;;0.10;;
70410;SDS011;57832;46.038;11.398;2023-02-07T01:08:19;0.10;;;0.10;;
70410;SDS011;57832;46.038;11.398;2023-02-07T01:10:45;0.10;;;0.10;;
70410;SDS011;57832;46.038;11.398;2023-02-07T01:13:11;0.10;;;0.10;;
70410;SDS011;57832;46.038;11.398;2023-02-07T01:15:38;0.10;;;0.10;;
70410;SDS011;57832;46.038;11.398;2023-02-07T01:18:06;0.10;;;0.10;;
70410;SDS011;57832;46.038;11.398;2023-02-07T01:20:32;0.20;;;0.20;;
70410;SDS011;57832;46.038;11.398;2023-02-07T01:22:57;0.10;;;0.10;;
70410;SDS011;57832;46.038;11.398;2023-02-07T01:25:23;0.10;;;0.10;;
70410;SDS011;57832;46.038;11.398;2023-02-07T01:27:49;0.10;;;0.10;;
70410;SDS011;57832;46.038;11.398;2023-02-07T01:30:15;0.10;;;0.10;;
70410;SDS011;57832;46.038;11.398;2023-02-07T01:32:41;0.10;;;0.10;;
70410;SDS011;57832;46.038;11.398;2023-02-07T01:35:06;0.10;;;0.10;;
70410;SDS011;57832;46.038;11.398;2023-02-07T01:37:32;0.10;;;0.10;;
70410;SDS011;57832;46.038;11.398;2023-02-07T01:39:58;0.10;;;0.10;;
70410;SDS011;57832;46.038;11.398;2023-02-07T01:42:24;0.10;;;0.10;;
70410;SDS011;57832;46.038;11.398;2023-02-07T01:47:18;0.10;;;0.10;;
70410;SDS011;57832;46.038;11.398;2023-02-07T01:49:46;0.20;;;0.20;;
70410;SDS011;57832;46.038;11.398;2023-02-07T01:52:14;0.10;;;0.10;;
70410;SDS011;57832;46.038;11.398;2023-02-07T01:54:44;0.10;;;0.10;;
70410;SDS011;57832;46.038;11.398;2023-02-07T01:57:15;0.10;;;0.10;;
70410;SDS011;57832;46.038;11.398;2023-02-07T01:59:43;0.10;;;0.10;;
70410;SDS011;57832;46.038;11.398;2023-02-07T02:02:11;0.10;;;0.10;;
70410;SDS011;57832;46.038;11.398;2023-02-07T02:04:40;0.10;;;0.10;;
70410;SDS011;57832;46.038;11.398;2023-02-07T02:07:07;0.10;;;0.10;;
70410;SDS011;57832;46.038;11.398;2023-02-07T02:12:07;0.10;;;0.10;;
70410;SDS011;57832;46.038;11.398;2023-02-07T02:34:09;0.10;;;0.10;;
70410;SDS011;57832;46.038;11.398;2023-02-07T02:39:53;0.20;;;0.20;;
70410;SDS011;57832;46.038;11.398;2023-02-07T02:48:01;0.10;;;0.10;;
70410;SDS011;57832;46.038;11.398;2023-02-07T02:50:28;0.20;;;0.20;;
70410;SDS011;57832;46.038;11.398;2023-02-07T02:52:55;0.10;;;0.10;;
70410;SDS011;57832;46.038;11.398;2023-02-07T02:55:30;0.10;;;0.10;;
70410;SDS011;57832;46.038;11.398;2023-02-07T03:00:46;0.20;;;0.20;;
70410;SDS011;57832;46.038;11.398;2023-02-07T03:06:16;0.20;;;0.20;;
70410;SDS011;57832;46.038;11.398;2023-02-07T03:11:23;0.20;;;0.20;;
70410;SDS011;57832;46.038;11.398;2023-02-07T03:17:06;0.20;;;0.20;;
70410;SDS011;57832;46.038;11.398;2023-02-07T03:19:26;0.20;;;0.20;;
70410;SDS011;57832;46.038;11.398;2023-02-07T03:21:58;0.10;;;0.10;;
70410;SDS011;57832;46.038;11.398;2023-02-07T03:24:28;0.20;;;0.20;;
70410;SDS011;57832;46.038;11.398;2023-02-07T03:26:57;0.20;;;0.20;;
70410;SDS011;57832;46.038;11.398;2023-02-07T03:29:26;0.10;;;0.10;;
70410;SDS011;57832;46.038;11.398;2023-02-07T03:31:55;0.20;;;0.20;;
70410;SDS011;57832;46.038;11.398;2023-02-07T03:34:34;0.20;;;0.20;;
70410;SDS011;57832;46.038;11.398;2023-02-07T03:37:07;0.10;;;0.10;;
70410;SDS011;57832;46.038;11.398;2023-02-07T03:39:40;0.10;;;0.10;;
70410;SDS011;57832;46.038;11.398;2023-02-07T03:42:07;0.10;;;0.10;;
70410;SDS011;57832;46.038;11.398;2023-02-07T03:44:38;0.20;;;0.20;;
70410;SDS011;57832;46.038;11.398;2023-02-07T03:47:06;0.10;;;0.10;;
70410;SDS011;57832;46.038;11.398;2023-02-07T03:49:31;0.20;;;0.20;;
70410;SDS011;57832;46.038;11.398;2023-02-07T03:51:57;0.20;;;0.20;;
70410;SDS011;57832;46.038;11.398;2023-02-07T03:54:22;0.20;;;0.20;;
70410;SDS011;57832;46.038;11.398;2023-02-07T03:56:48;0.20;;;0.20;;
70410;SDS011;57832;46.038;11.398;2023-02-07T03:59:14;0.20;;;0.20;;
70410;SDS011;57832;46.038;11.398;2023-02-07T04:01:39;0.20;;;0.20;;
70410;SDS011;57832;46.038;11.398;2023-02-07T04:04:10;0.20;;;0.20;;
70410;SDS011;57832;46.038;11.398;2023-02-07T04:06:35;0.20;;;0.20;;
70410;SDS011;57832;46.038;11.398;2023-02-07T04:09:02;0.20;;;0.20;;
70410;SDS011;57832;46.038;11.398;2023-02-07T04:11:27;0.20;;;0.20;;
70410;SDS011;57832;46.038;11.398;2023-02-07T04:13:53;0.10;;;0.10;;
70410;SDS011;57832;46.038;11.398;2023-02-07T04:16:18;0.20;;;0.20;;
70410;SDS011;57832;46.038;11.398;2023-02-07T04:18:44;0.20;;;0.20;;
70410;SDS011;57832;46.038;11.398;2023-02-07T04:21:10;0.20;;;0.20;;
70410;SDS011;57832;46.038;11.398;2023-02-07T04:23:35;0.20;;;0.20;;
70410;SDS011;57832;46.038;11.398;2023-02-07T04:26:01;0.20;;;0.20;;
70410;SDS011;57832;46.038;11.398;2023-02-07T04:28:27;0.20;;;0.20;;
70410;SDS011;57832;46.038;11.398;2023-02-07T04:30:53;0.15;;;0.15;;
70410;SDS011;57832;46.038;11.398;2023-02-07T04:33:20;0.20;;;0.20;;
70410;SDS011;57832;46.038;11.398;2023-02-07T04:35:52;0.20;;;0.20;;
70410;SDS011;57832;46.038;11.398;2023-02-07T04:38:19;0.20;;;0.20;;
70410;SDS011;57832;46.038;11.398;2023-02-07T04:40:44;0.17;;;0.17;;
70410;SDS011;57832;46.038;11.398;2023-02-07T04:43:10;0.20;;;0.20;;
70410;SDS011;57832;46.038;11.398;2023-02-07T04:45:35;0.20;;;0.20;;
70410;SDS011;57832;46.038;11.398;2023-02-07T04:48:01;0.20;;;0.20;;
70410;SDS011;57832;46.038;11.398;2023-02-07T04:50:26;0.20;;;0.20;;
70410;SDS011;57832;46.038;11.398;2023-02-07T04:52:52;0.20;;;0.20;;
70410;SDS011;57832;46.038;11.398;2023-02-07T04:55:17;0.20;;;0.20;;
70410;SDS011;57832;46.038;11.398;2023-02-07T04:57:43;0.20;;;0.20;;
70410;SDS011;57832;46.038;11.398;2023-02-07T05:00:09;0.20;;;0.20;;
70410;SDS011;57832;46.038;11.398;2023-02-07T05:02:35;0.20;;;0.20;;
70410;SDS011;57832;46.038;11.398;2023-02-07T05:05:00;0.20;;;0.20;;
70410;SDS011;57832;46.038;11.398;2023-02-07T05:07:26;0.20;;;0.20;;
70410;SDS011;57832;46.038;11.398;2023-02-07T05:09:51;0.20;;;0.20;;
70410;SDS011;57832;46.038;11.398;2023-02-07T05:12:17;0.20;;;0.20;;
70410;SDS011;57832;46.038;11.398;2023-02-07T05:14:43;0.20;;;0.20;;
70410;SDS011;57832;46.038;11.398;2023-02-07T05:17:09;0.20;;;0.20;;
70410;SDS011;57832;46.038;11.398;2023-02-07T05:19:35;0.20;;;0.20;;
70410;SDS011;57832;46.038;11.398;2023-02-07T05:22:01;0.20;;;0.20;;
70410;SDS011;57832;46.038;11.398;2023-02-07T05:24:27;0.20;;;0.20;;
70410;SDS011;57832;46.038;11.398;2023-02-07T05:26:52;0.20;;;0.20;;
70410;SDS011;57832;46.038;11.398;2023-02-07T05:29:18;0.20;;;0.20;;
70410;SDS011;57832;46.038;11.398;2023-02-07T05:31:43;0.20;;;0.20;;
70410;SDS011;57832;46.038;11.398;2023-02-07T05:34:27;0.20;;;0.20;;
70410;SDS011;57832;46.038;11.398;2023-02-07T05:36:53;0.20;;;0.20;;
70410;SDS011;57832;46.038;11.398;2023-02-07T05:39:19;0.20;;;0.20;;
70410;SDS011;57832;46.038;11.398;2023-02-07T05:41:44;0.20;;;0.20;;
70410;SDS011;57832;46.038;11.398;2023-02-07T05:44:10;0.20;;;0.20;;
70410;SDS011;57832;46.038;11.398;2023-02-07T05:46:36;0.20;;;0.20;;
70410;SDS011;57832;46.038;11.398;2023-02-07T05:49:02;0.20;;;0.20;;
70410;SDS011;57832;46.038;11.398;2023-02-07T05:51:27;0.20;;;0.20;;
70410;SDS011;57832;46.038;11.398;2023-02-07T05:53:53;0.20;;;0.20;;
70410;SDS011;57832;46.038;11.398;2023-02-07T05:56:18;0.20;;;0.20;;
70410;SDS011;57832;46.038;11.398;2023-02-07T05:58:44;0.20;;;0.20;;
70410;SDS011;57832;46.038;11.398;2023-02-07T06:01:10;0.20;;;0.20;;
70410;SDS011;57832;46.038;11.398;2023-02-07T06:03:36;0.20;;;0.20;;
70410;SDS011;57832;46.038;11.398;2023-02-07T06:06:01;0.20;;;0.20;;
70410;SDS011;57832;46.038;11.398;2023-02-07T06:08:27;0.20;;;0.20;;
70410;SDS011;57832;46.038;11.398;2023-02-07T06:10:53;0.20;;;0.20;;
70410;SDS011;57832;46.038;11.398;2023-02-07T06:13:18;0.20;;;0.20;;
70410;SDS011;57832;46.038;11.398;2023-02-07T06:15:43;0.20;;;0.20;;
70410;SDS011;57832;46.038;11.398;2023-02-07T06:18:09;0.20;;;0.20;;
70410;SDS011;57832;46.038;11.398;2023-02-07T06:20:35;0.20;;;0.20;;
70410;SDS011;57832;46.038;11.398;2023-02-07T06:23:00;0.20;;;0.20;;
70410;SDS011;57832;46.038;11.398;2023-02-07T06:25:26;0.20;;;0.20;;
70410;SDS011;57832;46.038;11.398;2023-02-07T06:27:51;0.20;;;0.20;;
70410;SDS011;57832;46.038;11.398;2023-02-07T06:30:17;0.20;;;0.20;;
70410;SDS011;57832;46.038;11.398;2023-02-07T06:32:42;0.20;;;0.20;;
70410;SDS011;57832;46.038;11.398;2023-02-07T06:35:08;0.20;;;0.20;;
70410;SDS011;57832;46.038;11.398;2023-02-07T06:37:34;0.20;;;0.20;;
70410;SDS011;57832;46.038;11.398;2023-02-07T06:39:59;0.20;;;0.20;;
70410;SDS011;57832;46.038;11.398;2023-02-07T06:42:25;0.20;;;0.20;;
70410;SDS011;57832;46.038;11.398;2023-02-07T06:44:50;0.20;;;0.20;;
70410;SDS011;57832;46.038;11.398;2023-02-07T06:47:16;0.20;;;0.20;;
70410;SDS011;57832;46.038;11.398;2023-02-07T06:49:44;0.20;;;0.20;;
70410;SDS011;57832;46.038;11.398;2023-02-07T06:52:10;0.20;;;0.20;;
70410;SDS011;57832;46.038;11.398;2023-02-07T06:54:36;0.20;;;0.20;;
70410;SDS011;57832;46.038;11.398;2023-02-07T06:57:01;0.20;;;0.20;;
70410;SDS011;57832;46.038;11.398;2023-02-07T06:59:27;0.20;;;0.20;;
70410;SDS011;57832;46.038;11.398;2023-02-07T07:01:52;0.20;;;0.20;;
70410;SDS011;57832;46.038;11.398;2023-02-07T07:04:18;0.20;;;0.20;;
70410;SDS011;57832;46.038;11.398;2023-02-07T07:06:43;0.20;;;0.20;;
70410;SDS011;57832;46.038;11.398;2023-02-07T07:09:09;0.20;;;0.20;;
70410;SDS011;57832;46.038;11.398;2023-02-07T07:11:35;0.20;;;0.20;;
70410;SDS011;57832;46.038;11.398;2023-02-07T07:14:06;0.20;;;0.20;;
70410;SDS011;57832;46.038;11.398;2023-02-07T07:16:33;0.20;;;0.20;;
70410;SDS011;57832;46.038;11.398;2023-02-07T07:18:58;0.20;;;0.20;;
70410;SDS011;57832;46.038;11.398;2023-02-07T07:21:23;0.20;;;0.20;;
70410;SDS011;57832;46.038;11.398;2023-02-07T07:23:51;0.20;;;0.20;;
70410;SDS011;57832;46.038;11.398;2023-02-07T07:26:17;0.20;;;0.20;;
70410;SDS011;57832;46.038;11.398;2023-02-07T07:28:42;0.20;;;0.20;;
70410;SDS011;57832;46.038;11.398;2023-02-07T07:31:08;0.20;;;0.20;;
70410;SDS011;57832;46.038;11.398;2023-02-07T07:33:33;0.20;;;0.20;;
70410;SDS011;57832;46.038;11.398;2023-02-07T07:36:00;0.20;;;0.20;;
70410;SDS011;57832;46.038;11.398;2023-02-07T07:38:26;0.20;;;0.20;;
70410;SDS011;57832;46.038;11.398;2023-02-07T07:40:52;0.20;;;0.20;;
70410;SDS011;57832;46.038;11.398;2023-02-07T07:43:18;0.20;;;0.20;;
70410;SDS011;57832;46.038;11.398;2023-02-07T07:45:43;0.20;;;0.20;;
70410;SDS011;57832;46.038;11.398;2023-02-07T07:48:09;0.20;;;0.20;;
70410;SDS011;57832;46.038;11.398;2023-02-07T07:50:35;0.20;;;0.20;;
70410;SDS011;57832;46.038;11.398;2023-02-07T07:53:00;0.20;;;0.20;;
70410;SDS011;57832;46.038;11.398;2023-02-07T07:55:26;0.20;;;0.20;;
70410;SDS011;57832;46.038;11.398;2023-02-07T07:57:52;0.20;;;0.20;;
70410;SDS011;57832;46.038;11.398;2023-02-07T08:00:17;0.20;;;0.20;;
70410;SDS011;57832;46.038;11.398;2023-02-07T08:02:43;0.20;;;0.20;;
70410;SDS011;57832;46.038;11.398;2023-02-07T08:05:08;0.20;;;0.20;;
70410;SDS011;57832;46.038;11.398;2023-02-07T08:07:35;0.20;;;0.20;;
70410;SDS011;57832;46.038;11.398;2023-02-07T08:10:01;0.20;;;0.20;;
70410;SDS011;57832;46.038;11.398;2023-02-07T08:12:26;0.20;;;0.20;;
70410;SDS011;57832;46.038;11.398;2023-02-07T08:14:52;0.20;;;0.20;;
70410;SDS011;57832;46.038;11.398;2023-02-07T08:17:17;0.10;;;0.10;;
70410;SDS011;57832;46.038;11.398;2023-02-07T08:19:43;0.10;;;0.10;;
70410;SDS011;57832;46.038;11.398;2023-02-07T08:22:08;0.20;;;0.20;;
70410;SDS011;57832;46.038;11.398;2023-02-07T08:24:34;0.10;;;0.10;;
70410;SDS011;57832;46.038;11.398;2023-02-07T08:27:01;0.20;;;0.20;;
70410;SDS011;57832;46.038;11.398;2023-02-07T08:29:27;0.20;;;0.20;;
70410;SDS011;57832;46.038;11.398;2023-02-07T08:31:52;0.20;;;0.20;;
70410;SDS011;57832;46.038;11.398;2023-02-07T08:34:18;0.20;;;0.20;;
70410;SDS011;57832;46.038;11.398;2023-02-07T08:36:48;0.20;;;0.20;;
70410;SDS011;57832;46.038;11.398;2023-02-07T08:39:14;0.20;;;0.20;;
70410;SDS011;57832;46.038;11.398;2023-02-07T08:41:39;0.10;;;0.10;;
70410;SDS011;57832;46.038;11.398;2023-02-07T08:44:05;0.20;;;0.20;;
70410;SDS011;57832;46.038;11.398;2023-02-07T08:46:30;0.20;;;0.20;;
70410;SDS011;57832;46.038;11.398;2023-02-07T08:48:56;0.20;;;0.20;;
70410;SDS011;57832;46.038;11.398;2023-02-07T08:51:21;0.20;;;0.20;;
70410;SDS011;57832;46.038;11.398;2023-02-07T08:53:47;0.10;;;0.10;;
70410;SDS011;57832;46.038;11.398;2023-02-07T08:56:12;0.10;;;0.10;;
70410;SDS011;57832;46.038;11.398;2023-02-07T08:58:38;0.20;;;0.20;;
70410;SDS011;57832;46.038;11.398;2023-02-07T09:01:05;0.20;;;0.20;;
70410;SDS011;57832;46.038;11.398;2023-02-07T09:03:35;0.20;;;0.20;;
70410;SDS011;57832;46.038;11.398;2023-02-07T09:06:03;0.15;;;0.15;;
70410;SDS011;57832;46.038;11.398;2023-02-07T09:08:30;0.20;;;0.20;;
70410;SDS011;57832;46.038;11.398;2023-02-07T09:10:56;0.20;;;0.20;;
70410;SDS011;57832;46.038;11.398;2023-02-07T09:13:21;0.10;;;0.10;;
70410;SDS011;57832;46.038;11.398;2023-02-07T09:15:56;0.10;;;0.10;;
70410;SDS011;57832;46.038;11.398;2023-02-07T09:18:23;0.20;;;0.20;;
70410;SDS011;57832;46.038;11.398;2023-02-07T09:20:50;0.20;;;0.20;;
70410;SDS011;57832;46.038;11.398;2023-02-07T09:23:16;0.20;;;0.20;;
70410;SDS011;57832;46.038;11.398;2023-02-07T09:25:42;0.20;;;0.20;;
70410;SDS011;57832;46.038;11.398;2023-02-07T09:28:08;0.10;;;0.10;;
70410;SDS011;57832;46.038;11.398;2023-02-07T09:30:33;0.10;;;0.10;;
70410;SDS011;57832;46.038;11.398;2023-02-07T09:32:59;0.20;;;0.20;;
70410;SDS011;57832;46.038;11.398;2023-02-07T09:35:25;0.10;;;0.10;;
70410;SDS011;57832;46.038;11.398;2023-02-07T09:37:54;0.20;;;0.20;;
70410;SDS011;57832;46.038;11.398;2023-02-07T09:40:20;0.10;;;0.10;;
70410;SDS011;57832;46.038;11.398;2023-02-07T09:42:56;0.17;;;0.17;;
70410;SDS011;57832;46.038;11.398;2023-02-07T09:45:38;0.10;;;0.10;;
70410;SDS011;57832;46.038;11.398;2023-02-07T09:48:15;0.10;;;0.10;;
70410;SDS011;57832;46.038;11.398;2023-02-07T09:50:53;0.10;;;0.10;;
70410;SDS011;57832;46.038;11.398;2023-02-07T09:55:58;0.10;;;0.10;;
70410;SDS011;57832;46.038;11.398;2023-02-07T10:00:59;0.10;;;0.10;;
70410;SDS011;57832;46.038;11.398;2023-02-07T10:03:31;0.10;;;0.10;;
70410;SDS011;57832;46.038;11.398;2023-02-07T10:06:04;0.10;;;0.10;;
70410;SDS011;57832;46.038;11.398;2023-02-07T10:08:37;0.10;;;0.10;;
70410;SDS011;57832;46.038;11.398;2023-02-07T10:27:08;0.00;;;0.00;;
70410;SDS011;57832;46.038;11.398;2023-02-07T10:32:23;0.00;;;0.00;;
70410;SDS011;57832;46.038;11.398;2023-02-07T10:34:58;0.00;;;0.00;;
70410;SDS011;57832;46.038;11.398;2023-02-07T10:37:30;0.00;;;0.00;;
70410;SDS011;57832;46.038;11.398;2023-02-07T10:40:03;0.00;;;0.00;;
70410;SDS011;57832;46.038;11.398;2023-02-07T10:42:36;0.00;;;0.00;;
70410;SDS011;57832;46.038;11.398;2023-02-07T10:45:03;0.00;;;0.00;;
70410;SDS011;57832;46.038;11.398;2023-02-07T10:47:37;0.00;;;0.00;;
70410;SDS011;57832;46.038;11.398;2023-02-07T10:50:12;0.00;;;0.00;;
70410;SDS011;57832;46.038;11.398;2023-02-07T10:52:49;0.00;;;0.00;;
70410;SDS011;57832;46.038;11.398;2023-02-07T10:55:32;0.00;;;0.00;;
70410;SDS011;57832;46.038;11.398;2023-02-07T10:58:21;0.00;;;0.00;;
70410;SDS011;57832;46.038;11.398;2023-02-07T11:00:51;0.00;;;0.00;;
70410;SDS011;57832;46.038;11.398;2023-02-07T11:03:22;0.00;;;0.00;;
70410;SDS011;57832;46.038;11.398;2023-02-07T11:05:56;0.00;;;0.00;;
70410;SDS011;57832;46.038;11.398;2023-02-07T11:08:27;0.00;;;0.00;;
70410;SDS011;57832;46.038;11.398;2023-02-07T11:10:58;0.00;;;0.00;;
70410;SDS011;57832;46.038;11.398;2023-02-07T11:13:45;0.00;;;0.00;;
70410;SDS011;57832;46.038;11.398;2023-02-07T11:16:14;0.00;;;0.00;;
70410;SDS011;57832;46.038;11.398;2023-02-07T11:18:45;0.00;;;0.00;;
70410;SDS011;57832;46.038;11.398;2023-02-07T11:21:33;0.00;;;0.00;;
70410;SDS011;57832;46.038;11.398;2023-02-07T11:28:53;0.00;;;0.00;;
70410;SDS011;57832;46.038;11.398;2023-02-07T11:31:39;0.00;;;0.00;;
70410;SDS011;57832;46.038;11.398;2023-02-07T11:34:10;0.00;;;0.00;;
70410;SDS011;57832;46.038;11.398;2023-02-07T11:37:07;0.00;;;0.00;;
70410;SDS011;57832;46.038;11.398;2023-02-07T11:39:34;0.00;;;0.00;;
70410;SDS011;57832;46.038;11.398;2023-02-07T11:42:00;0.00;;;0.00;;
70410;SDS011;57832;46.038;11.398;2023-02-07T11:44:27;0.00;;;0.00;;
70410;SDS011;57832;46.038;11.398;2023-02-07T11:46:55;0.00;;;0.00;;
70410;SDS011;57832;46.038;11.398;2023-02-07T11:52:01;0.00;;;0.00;;
70410;SDS011;57832;46.038;11.398;2023-02-07T11:57:04;0.00;;;0.00;;
70410;SDS011;57832;46.038;11.398;2023-02-07T11:59:34;0.00;;;0.00;;
70410;SDS011;57832;46.038;11.398;2023-02-07T12:02:05;0.10;;;0.10;;
70410;SDS011;57832;46.038;11.398;2023-02-07T12:04:39;0.00;;;0.00;;
70410;SDS011;57832;46.038;11.398;2023-02-07T12:07:17;0.03;;;0.03;;
70410;SDS011;57832;46.038;11.398;2023-02-07T12:09:48;0.00;;;0.00;;
70410;SDS011;57832;46.038;11.398;2023-02-07T12:12:26;0.00;;;0.00;;
70410;SDS011;57832;46.038;11.398;2023-02-07T12:14:53;0.00;;;0.00;;
70410;SDS011;57832;46.038;11.398;2023-02-07T12:17:30;0.00;;;0.00;;
70410;SDS011;57832;46.038;11.398;2023-02-07T12:20:05;0.00;;;0.00;;
70410;SDS011;57832;46.038;11.398;2023-02-07T12:22:40;0.00;;;0.00;;
70410;SDS011;57832;46.038;11.398;2023-02-07T12:25:21;0.00;;;0.00;;
70410;SDS011;57832;46.038;11.398;2023-02-07T12:27:50;0.00;;;0.00;;
70410;SDS011;57832;46.038;11.398;2023-02-07T12:30:30;0.00;;;0.00;;
70410;SDS011;57832;46.038;11.398;2023-02-07T12:33:21;0.00;;;0.00;;
70410;SDS011;57832;46.038;11.398;2023-02-07T12:41:19;0.00;;;0.00;;
70410;SDS011;57832;46.038;11.398;2023-02-07T12:44:00;0.00;;;0.00;;
70410;SDS011;57832;46.038;11.398;2023-02-07T12:46:56;0.00;;;0.00;;
70410;SDS011;57832;46.038;11.398;2023-02-07T12:57:32;0.00;;;0.00;;
70410;SDS011;57832;46.038;11.398;2023-02-07T13:00:12;0.00;;;0.00;;
70410;SDS011;57832;46.038;11.398;2023-02-07T13:06:08;0.00;;;0.00;;
70410;SDS011;57832;46.038;11.398;2023-02-07T13:11:36;0.00;;;0.00;;
70410;SDS011;57832;46.038;11.398;2023-02-07T13:17:30;0.00;;;0.00;;
70410;SDS011;57832;46.038;11.398;2023-02-07T13:20:01;0.00;;;0.00;;
70410;SDS011;57832;46.038;11.398;2023-02-07T13:22:34;0.00;;;0.00;;
70410;SDS011;57832;46.038;11.398;2023-02-07T13:25:15;0.00;;;0.00;;
70410;SDS011;57832;46.038;11.398;2023-02-07T13:27:47;0.00;;;0.00;;
70410;SDS011;57832;46.038;11.398;2023-02-07T13:30:16;0.00;;;0.00;;
70410;SDS011;57832;46.038;11.398;2023-02-07T13:32:43;0.00;;;0.00;;
70410;SDS011;57832;46.038;11.398;2023-02-07T13:35:11;0.00;;;0.00;;
70410;SDS011;57832;46.038;11.398;2023-02-07T13:37:44;0.00;;;0.00;;
70410;SDS011;57832;46.038;11.398;2023-02-07T13:40:27;0.00;;;0.00;;
70410;SDS011;57832;46.038;11.398;2023-02-07T13:43:05;0.00;;;0.00;;
70410;SDS011;57832;46.038;11.398;2023-02-07T13:48:39;0.00;;;0.00;;
70410;SDS011;57832;46.038;11.398;2023-02-07T13:56:54;0.00;;;0.00;;
70410;SDS011;57832;46.038;11.398;2023-02-07T13:59:41;0.00;;;0.00;;
70410;SDS011;57832;46.038;11.398;2023-02-07T14:07:28;0.00;;;0.00;;
70410;SDS011;57832;46.038;11.398;2023-02-07T14:09:58;0.00;;;0.00;;
70410;SDS011;57832;46.038;11.398;2023-02-07T14:12:27;0.00;;;0.00;;
70410;SDS011;57832;46.038;11.398;2023-02-07T14:18:05;0.00;;;0.00;;
70410;SDS011;57832;46.038;11.398;2023-02-07T14:21:01;0.00;;;0.00;;
70410;SDS011;57832;46.038;11.398;2023-02-07T14:23:48;0.00;;;0.00;;
70410;SDS011;57832;46.038;11.398;2023-02-07T14:26:41;0.00;;;0.00;;
70410;SDS011;57832;46.038;11.398;2023-02-07T14:31:55;0.00;;;0.00;;
70410;SDS011;57832;46.038;11.398;2023-02-07T14:34:29;0.00;;;0.00;;
70410;SDS011;57832;46.038;11.398;2023-02-07T14:36:56;0.00;;;0.00;;
70410;SDS011;57832;46.038;11.398;2023-02-07T14:39:26;0.00;;;0.00;;
70410;SDS011;57832;46.038;11.398;2023-02-07T14:41:54;0.00;;;0.00;;
70410;SDS011;57832;46.038;11.398;2023-02-07T14:44:35;0.00;;;0.00;;
70410;SDS011;57832;46.038;11.398;2023-02-07T14:47:03;0.00;;;0.00;;
70410;SDS011;57832;46.038;11.398;2023-02-07T14:52:04;0.00;;;0.00;;
70410;SDS011;57832;46.038;11.398;2023-02-07T14:54:44;0.00;;;0.00;;
70410;SDS011;57832;46.038;11.398;2023-02-07T14:59:41;0.00;;;0.00;;
70410;SDS011;57832;46.038;11.398;2023-02-07T15:07:37;0.00;;;0.00;;
70410;SDS011;57832;46.038;11.398;2023-02-07T15:10:21;0.00;;;0.00;;
70410;SDS011;57832;46.038;11.398;2023-02-07T15:12:50;0.00;;;0.00;;
70410;SDS011;57832;46.038;11.398;2023-02-07T15:17:43;0.00;;;0.00;;
70410;SDS011;57832;46.038;11.398;2023-02-07T15:20:17;0.00;;;0.00;;
70410;SDS011;57832;46.038;11.398;2023-02-07T15:22:47;0.00;;;0.00;;
70410;SDS011;57832;46.038;11.398;2023-02-07T15:25:16;0.00;;;0.00;;
70410;SDS011;57832;46.038;11.398;2023-02-07T15:27:42;0.00;;;0.00;;
70410;SDS011;57832;46.038;11.398;2023-02-07T15:30:26;0.05;;;0.05;;
70410;SDS011;57832;46.038;11.398;2023-02-07T15:32:53;0.00;;;0.00;;
70410;SDS011;57832;46.038;11.398;2023-02-07T15:35:19;0.00;;;0.00;;
70410;SDS011;57832;46.038;11.398;2023-02-07T15:37:47;0.00;;;0.00;;
70410;SDS011;57832;46.038;11.398;2023-02-07T15:40:14;0.00;;;0.00;;
70410;SDS011;57832;46.038;11.398;2023-02-07T15:42:48;0.00;;;0.00;;
70410;SDS011;57832;46.038;11.398;2023-02-07T15:45:25;0.00;;;0.00;;
70410;SDS011;57832;46.038;11.398;2023-02-07T15:48:03;0.00;;;0.00;;
70410;SDS011;57832;46.038;11.398;2023-02-07T15:50:33;0.00;;;0.00;;
70410;SDS011;57832;46.038;11.398;2023-02-07T15:55:34;0.00;;;0.00;;
70410;SDS011;57832;46.038;11.398;2023-02-07T15:58:01;0.00;;;0.00;;
70410;SDS011;57832;46.038;11.398;2023-02-07T16:00:35;0.00;;;0.00;;
70410;SDS011;57832;46.038;11.398;2023-02-07T16:03:04;0.00;;;0.00;;
70410;SDS011;57832;46.038;11.398;2023-02-07T16:05:33;0.00;;;0.00;;
70410;SDS011;57832;46.038;11.398;2023-02-07T16:08:02;0.00;;;0.00;;
70410;SDS011;57832;46.038;11.398;2023-02-07T16:10:35;0.00;;;0.00;;
70410;SDS011;57832;46.038;11.398;2023-02-07T16:15:35;0.00;;;0.00;;
70410;SDS011;57832;46.038;11.398;2023-02-07T16:18:03;0.03;;;0.03;;
70410;SDS011;57832;46.038;11.398;2023-02-07T16:20:30;0.10;;;0.10;;
70410;SDS011;57832;46.038;11.398;2023-02-07T16:23:00;0.00;;;0.00;;
70410;SDS011;57832;46.038;11.398;2023-02-07T16:25:34;0.00;;;0.00;;
70410;SDS011;57832;46.038;11.398;2023-02-07T16:28:00;0.00;;;0.00;;
70410;SDS011;57832;46.038;11.398;2023-02-07T16:30:35;0.00;;;0.00;;
70410;SDS011;57832;46.038;11.398;2023-02-07T16:33:03;0.05;;;0.05;;
70410;SDS011;57832;46.038;11.398;2023-02-07T16:35:35;0.10;;;0.10;;
70410;SDS011;57832;46.038;11.398;2023-02-07T16:38:01;0.00;;;0.00;;
70410;SDS011;57832;46.038;11.398;2023-02-07T16:40:27;0.08;;;0.08;;
70410;SDS011;57832;46.038;11.398;2023-02-07T16:42:53;0.05;;;0.05;;
70410;SDS011;57832;46.038;11.398;2023-02-07T16:45:24;0.00;;;0.00;;
70410;SDS011;57832;46.038;11.398;2023-02-07T16:47:51;0.00;;;0.00;;
70410;SDS011;57832;46.038;11.398;2023-02-07T16:50:20;0.10;;;0.10;;
70410;SDS011;57832;46.038;11.398;2023-02-07T16:52:49;0.10;;;0.10;;
70410;SDS011;57832;46.038;11.398;2023-02-07T16:55:16;0.00;;;0.00;;
70410;SDS011;57832;46.038;11.398;2023-02-07T16:57:44;0.00;;;0.00;;
70410;SDS011;57832;46.038;11.398;2023-02-07T17:00:14;0.00;;;0.00;;
70410;SDS011;57832;46.038;11.398;2023-02-07T17:02:42;0.10;;;0.10;;